createdAt,value
2023-06-02T00:00:48.067Z,94830.00
2023-06-02T00:01:48.086Z,94830.00
2023-06-02T00:02:48.223Z,94831.00
2023-06-02T00:03:48.081Z,94832.00
2023-06-02T00:04:48.084Z,94831.00
2023-06-02T00:05:48.253Z,94830.00
2023-06-02T00:06:48.207Z,94831.00
2023-06-02T00:07:48.229Z,94831.00
2023-06-02T00:08:48.296Z,94829.00
2023-06-02T00:09:48.286Z,94830.00
2023-06-02T00:10:48.336Z,94829.00
2023-06-02T00:11:48.399Z,94833.00
2023-06-02T00:12:48.411Z,94831.00
2023-06-02T00:13:48.464Z,94831.00
2023-06-02T00:14:48.472Z,94833.00
2023-06-02T00:15:48.528Z,94832.00
2023-06-02T00:16:48.587Z,94832.00
2023-06-02T00:17:48.627Z,94832.00
2023-06-02T00:18:48.560Z,94836.00
2023-06-02T00:19:48.617Z,94836.00
2023-06-02T00:20:48.658Z,94833.00
2023-06-02T00:21:48.699Z,94835.00
2023-06-02T00:22:48.694Z,94836.00
2023-06-02T00:23:48.744Z,94836.00
2023-06-02T00:24:48.717Z,94836.00
2023-06-02T00:25:48.737Z,94836.00
2023-06-02T00:26:48.754Z,94837.00
2023-06-02T00:27:48.787Z,94834.00
2023-06-02T00:28:48.774Z,94834.00
2023-06-02T00:29:48.735Z,94833.00
2023-06-02T00:30:49.398Z,94833.00
2023-06-02T00:31:48.920Z,94840.00
2023-06-02T00:32:48.892Z,94841.00
2023-06-02T00:33:48.898Z,94842.00
2023-06-02T00:34:48.892Z,94841.00
2023-06-02T00:35:50.638Z,94840.00
2023-06-02T00:36:49.020Z,94840.00
2023-06-02T00:37:49.029Z,94838.00
2023-06-02T00:38:49.115Z,94840.00
2023-06-02T00:39:49.115Z,94840.00
2023-06-02T00:40:49.143Z,94840.00
2023-06-02T00:41:49.222Z,94844.00
2023-06-02T00:42:49.260Z,94843.00
2023-06-02T00:43:49.305Z,94843.00
2023-06-02T00:44:49.357Z,94843.00
2023-06-02T00:45:49.439Z,94841.00
2023-06-02T00:46:49.495Z,94844.00
2023-06-02T00:47:49.557Z,94839.00
2023-06-02T00:48:49.519Z,94840.00
2023-06-02T00:49:49.604Z,94842.00
2023-06-02T00:50:49.602Z,94842.00
2023-06-02T00:51:49.674Z,94842.00
2023-06-02T00:52:49.681Z,94841.00
2023-06-02T00:53:49.715Z,94843.00
2023-06-02T00:54:49.734Z,94843.00
2023-06-02T00:55:49.807Z,94843.00
2023-06-02T00:56:49.790Z,94844.00
2023-06-02T00:57:49.809Z,94842.00
2023-06-02T00:58:49.838Z,94844.00
2023-06-02T00:59:49.884Z,94843.00
2023-06-02T01:00:49.948Z,94844.00
2023-06-02T01:01:49.933Z,94842.00
2023-06-02T01:02:49.940Z,94841.00
2023-06-02T01:03:49.993Z,94842.00
2023-06-02T01:04:49.994Z,94841.00
2023-06-02T01:05:50.052Z,94840.00
2023-06-02T01:06:50.109Z,94840.00
2023-06-02T01:07:50.102Z,94839.00
2023-06-02T01:08:50.111Z,94839.00
2023-06-02T01:09:50.135Z,94837.00
2023-06-02T01:10:50.180Z,94834.00
2023-06-02T01:11:50.223Z,94837.00
2023-06-02T01:12:50.199Z,94835.00
2023-06-02T01:13:50.325Z,94835.00
2023-06-02T01:14:50.262Z,94836.00
2023-06-02T01:15:50.386Z,94833.00
2023-06-02T01:16:50.420Z,94832.00
2023-06-02T01:17:50.437Z,94833.00
2023-06-02T01:18:50.406Z,94834.00
2023-06-02T01:19:50.457Z,94833.00
2023-06-02T01:20:50.717Z,94833.00
2023-06-02T01:21:50.532Z,94834.00
2023-06-02T01:22:50.452Z,94832.00
2023-06-02T01:23:50.489Z,94833.00
2023-06-02T01:24:50.555Z,94830.00
2023-06-02T01:25:50.552Z,94830.00
2023-06-02T01:26:50.591Z,94826.00
2023-06-02T01:27:50.649Z,94827.00
2023-06-02T01:28:50.653Z,94831.00
2023-06-02T01:29:50.650Z,94831.00
2023-06-02T01:30:50.725Z,94831.00
2023-06-02T01:31:50.767Z,94829.00
2023-06-02T01:32:50.796Z,94830.00
2023-06-02T01:33:50.783Z,94830.00
2023-06-02T01:34:51.149Z,94830.00
2023-06-02T01:35:50.902Z,94830.00
2023-06-02T01:36:50.905Z,94828.00
2023-06-02T01:37:50.950Z,94829.00
2023-06-02T01:38:50.982Z,94828.00
2023-06-02T01:39:51.010Z,94826.00
2023-06-02T01:40:51.018Z,94828.00
2023-06-02T01:41:51.098Z,94827.00
2023-06-02T01:42:51.134Z,94828.00
2023-06-02T01:43:51.139Z,94827.00
2023-06-02T01:44:51.157Z,94826.00
2023-06-02T01:45:51.233Z,94825.00
2023-06-02T01:46:51.267Z,94825.00
2023-06-02T01:47:51.288Z,94827.00
2023-06-02T01:48:51.262Z,94823.00
2023-06-02T01:49:51.253Z,94821.00
2023-06-02T01:50:51.360Z,94823.00
2023-06-02T01:51:51.300Z,94822.00
2023-06-02T01:52:51.389Z,94821.00
2023-06-02T01:53:51.385Z,94822.00
2023-06-02T01:54:51.490Z,94822.00
2023-06-02T01:55:51.528Z,94821.00
2023-06-02T01:56:51.540Z,94821.00
2023-06-02T01:57:51.613Z,94822.00
2023-06-02T01:58:51.656Z,94822.00
2023-06-02T01:59:51.731Z,94822.00
2023-06-02T02:00:51.763Z,94820.00
2023-06-02T02:01:51.837Z,94821.00
2023-06-02T02:02:52.001Z,94822.00
2023-06-02T02:03:51.939Z,94821.00
2023-06-02T02:04:51.860Z,94822.00
2023-06-02T02:05:51.879Z,94824.00
2023-06-02T02:06:51.908Z,94823.00
2023-06-02T02:07:51.973Z,94824.00
2023-06-02T02:08:51.930Z,94822.00
2023-06-02T02:09:51.967Z,94821.00
2023-06-02T02:10:52.014Z,94823.00
2023-06-02T02:11:52.016Z,94822.00
2023-06-02T02:12:52.051Z,94820.00
2023-06-02T02:13:52.074Z,94822.00
2023-06-02T02:14:52.138Z,94821.00
2023-06-02T02:15:52.223Z,94818.00
2023-06-02T02:16:52.252Z,94818.00
2023-06-02T02:17:52.268Z,94818.00
2023-06-02T02:18:52.230Z,94818.00
2023-06-02T02:19:52.330Z,94820.00
2023-06-02T02:20:52.367Z,94818.00
2023-06-02T02:21:52.486Z,94819.00
2023-06-02T02:22:52.429Z,94822.00
2023-06-02T02:23:52.525Z,94818.00
2023-06-02T02:24:52.536Z,94819.00
2023-06-02T02:25:52.568Z,94819.00
2023-06-02T02:26:52.555Z,94821.00
2023-06-02T02:27:52.598Z,94824.00
2023-06-02T02:28:52.573Z,94821.00
2023-06-02T02:29:52.590Z,94822.00
2023-06-02T02:30:52.673Z,94822.00
2023-06-02T02:31:52.939Z,94821.00
2023-06-02T02:32:52.775Z,94823.00
2023-06-02T02:33:52.734Z,94820.00
2023-06-02T02:34:52.812Z,94824.00
2023-06-02T02:35:52.759Z,94821.00
2023-06-02T02:36:52.814Z,94821.00
2023-06-02T02:37:52.841Z,94820.00
2023-06-02T02:38:52.854Z,94822.00
2023-06-02T02:39:52.880Z,94821.00
2023-06-02T02:40:52.932Z,94822.00
2023-06-02T02:41:52.951Z,94823.00
2023-06-02T02:42:52.934Z,94824.00
2023-06-02T02:43:52.952Z,94823.00
2023-06-02T02:44:52.976Z,94827.00
2023-06-02T02:45:53.025Z,94826.00
2023-06-02T02:46:53.035Z,94824.00
2023-06-02T02:47:53.126Z,94826.00
2023-06-02T02:48:53.144Z,94825.00
2023-06-02T02:49:53.158Z,94825.00
2023-06-02T02:50:53.213Z,94828.00
2023-06-02T02:51:53.271Z,94829.00
2023-06-02T02:52:53.338Z,94826.00
2023-06-02T02:53:53.414Z,94827.00
2023-06-02T02:54:53.436Z,94829.00
2023-06-02T02:55:53.511Z,94831.00
2023-06-02T02:56:53.548Z,94827.00
2023-06-02T02:57:53.572Z,94828.00
2023-06-02T02:58:53.582Z,94829.00
2023-06-02T02:59:53.671Z,94827.00
2023-06-02T03:00:53.755Z,94828.00
2023-06-02T03:01:53.752Z,94830.00
2023-06-02T03:02:53.819Z,94828.00
2023-06-02T03:03:53.825Z,94830.00
2023-06-02T03:04:53.843Z,94829.00
2023-06-02T03:05:53.926Z,94832.00
2023-06-02T03:06:53.978Z,94830.00
2023-06-02T03:07:54.005Z,94830.00
2023-06-02T03:08:53.982Z,94831.00
2023-06-02T03:09:54.066Z,94831.00
2023-06-02T03:10:54.077Z,94833.00
2023-06-02T03:11:54.059Z,94832.00
2023-06-02T03:12:54.072Z,94831.00
2023-06-02T03:13:54.126Z,94835.00
2023-06-02T03:14:54.153Z,94832.00
2023-06-02T03:15:54.176Z,94835.00
2023-06-02T03:16:54.247Z,94835.00
2023-06-02T03:17:54.263Z,94836.00
2023-06-02T03:18:54.252Z,94836.00
2023-06-02T03:19:54.313Z,94838.00
2023-06-02T03:20:54.329Z,94836.00
2023-06-02T03:21:54.370Z,94836.00
2023-06-02T03:22:54.348Z,94836.00
2023-06-02T03:23:54.429Z,94837.00
2023-06-02T03:24:54.372Z,94838.00
2023-06-02T03:25:54.417Z,94839.00
2023-06-02T03:26:54.418Z,94840.00
2023-06-02T03:27:54.471Z,94840.00
2023-06-02T03:28:54.481Z,94836.00
2023-06-02T03:29:54.517Z,94840.00
2023-06-02T03:30:54.537Z,94839.00
2023-06-02T03:31:54.553Z,94838.00
2023-06-02T03:32:54.587Z,94841.00
2023-06-02T03:33:54.620Z,94844.00
2023-06-02T03:34:54.595Z,94844.00
2023-06-02T03:35:54.650Z,94845.00
2023-06-02T03:36:54.654Z,94845.00
2023-06-02T03:37:54.689Z,94846.00
2023-06-02T03:38:54.639Z,94846.00
2023-06-02T03:39:54.656Z,94846.00
2023-06-02T03:40:54.669Z,94845.00
2023-06-02T03:41:54.683Z,94846.00
2023-06-02T03:42:54.687Z,94846.00
2023-06-02T03:43:56.673Z,94846.00
2023-06-02T03:44:54.757Z,94844.00
2023-06-02T03:45:54.820Z,94846.00
2023-06-02T03:46:54.867Z,94847.00
2023-06-02T03:47:54.861Z,94847.00
2023-06-02T03:48:54.838Z,94844.00
2023-06-02T03:49:54.861Z,94848.00
2023-06-02T03:50:54.970Z,94847.00
2023-06-02T03:51:55.007Z,94850.00
2023-06-02T03:52:55.009Z,94852.00
2023-06-02T03:53:55.058Z,94853.00
2023-06-02T03:54:55.100Z,94853.00
2023-06-02T03:55:55.135Z,94854.00
2023-06-02T03:56:55.098Z,94855.00
2023-06-02T03:57:55.156Z,94857.00
2023-06-02T03:58:55.167Z,94855.00
2023-06-02T03:59:55.185Z,94858.00
2023-06-02T04:00:55.232Z,94854.00
2023-06-02T04:01:55.264Z,94855.00
2023-06-02T04:02:55.250Z,94855.00
2023-06-02T04:03:55.360Z,94856.00
2023-06-02T04:04:55.302Z,94860.00
2023-06-02T04:05:55.255Z,94858.00
2023-06-02T04:06:55.313Z,94859.00
2023-06-02T04:07:55.382Z,94860.00
2023-06-02T04:08:55.421Z,94858.00
2023-06-02T04:09:55.480Z,94860.00
2023-06-02T04:10:55.498Z,94861.00
2023-06-02T04:11:55.528Z,94861.00
2023-06-02T04:12:55.569Z,94861.00
2023-06-02T04:13:55.628Z,94861.00
2023-06-02T04:14:55.633Z,94863.00
2023-06-02T04:15:55.636Z,94861.00
2023-06-02T04:16:55.814Z,94863.00
2023-06-02T04:17:55.763Z,94863.00
2023-06-02T04:18:55.802Z,94862.00
2023-06-02T04:19:55.782Z,94862.00
2023-06-02T04:20:55.828Z,94864.00
2023-06-02T04:21:55.867Z,94861.00
2023-06-02T04:22:55.846Z,94863.00
2023-06-02T04:23:55.863Z,94861.00
2023-06-02T04:24:55.869Z,94861.00
2023-06-02T04:25:55.920Z,94860.00
2023-06-02T04:26:55.918Z,94860.00
2023-06-02T04:27:55.975Z,94862.00
2023-06-02T04:28:55.986Z,94864.00
2023-06-02T04:29:55.979Z,94867.00
2023-06-02T04:30:55.954Z,94865.00
2023-06-02T04:31:56.022Z,94862.00
2023-06-02T04:32:56.046Z,94861.00
2023-06-02T04:33:56.090Z,94864.00
2023-06-02T04:34:56.084Z,94860.00
2023-06-02T04:35:56.086Z,94859.00
2023-06-02T04:36:56.075Z,94860.00
2023-06-02T04:37:56.097Z,94859.00
2023-06-02T04:38:56.102Z,94859.00
2023-06-02T04:39:56.136Z,94859.00
2023-06-02T04:40:56.227Z,94862.00
2023-06-02T04:41:56.226Z,94861.00
2023-06-02T04:42:56.198Z,94860.00
2023-06-02T04:43:56.243Z,94861.00
2023-06-02T04:44:56.280Z,94862.00
2023-06-02T04:45:56.366Z,94864.00
2023-06-02T04:46:56.426Z,94864.00
2023-06-02T04:47:56.388Z,94862.00
2023-06-02T04:48:56.370Z,94863.00
2023-06-02T04:49:56.401Z,94864.00
2023-06-02T04:50:56.498Z,94866.00
2023-06-02T04:51:56.504Z,94865.00
2023-06-02T04:52:56.513Z,94865.00
2023-06-02T04:53:56.546Z,94866.00
2023-06-02T04:54:56.592Z,94867.00
2023-06-02T04:55:56.626Z,94866.00
2023-06-02T04:56:56.644Z,94864.00
2023-06-02T04:57:56.658Z,94865.00
2023-06-02T04:58:56.706Z,94864.00
2023-06-02T04:59:56.683Z,94862.00
2023-06-02T05:00:56.743Z,94863.00
2023-06-02T05:01:56.874Z,94862.00
2023-06-02T05:02:56.911Z,94865.00
2023-06-02T05:03:56.908Z,94864.00
2023-06-02T05:04:56.853Z,94865.00
2023-06-02T05:05:56.921Z,94861.00
2023-06-02T05:06:56.898Z,94862.00
2023-06-02T05:07:56.900Z,94861.00
2023-06-02T05:08:56.958Z,94865.00
2023-06-02T05:09:56.976Z,94863.00
2023-06-02T05:10:57.051Z,94864.00
2023-06-02T05:11:57.105Z,94865.00
2023-06-02T05:12:57.119Z,94864.00
2023-06-02T05:13:57.186Z,94864.00
2023-06-02T05:14:57.244Z,94864.00
2023-06-02T05:15:57.248Z,94863.00
2023-06-02T05:16:57.266Z,94864.00
2023-06-02T05:17:57.352Z,94864.00
2023-06-02T05:18:57.291Z,94860.00
2023-06-02T05:19:57.322Z,94861.00
2023-06-02T05:20:57.436Z,94861.00
2023-06-02T05:21:57.445Z,94859.00
2023-06-02T05:22:57.443Z,94857.00
2023-06-02T05:23:57.432Z,94859.00
2023-06-02T05:24:57.465Z,94858.00
2023-06-02T05:25:57.545Z,94855.00
2023-06-02T05:26:57.638Z,94856.00
2023-06-02T05:27:57.644Z,94854.00
2023-06-02T05:28:57.695Z,94857.00
2023-06-02T05:29:57.761Z,94857.00
2023-06-02T05:30:57.799Z,94856.00
2023-06-02T05:31:57.918Z,94859.00
2023-06-02T05:32:57.918Z,94861.00
2023-06-02T05:33:57.838Z,94861.00
2023-06-02T05:34:57.916Z,94862.00
2023-06-02T05:35:58.175Z,94861.00
2023-06-02T05:36:58.010Z,94858.00
2023-06-02T05:37:58.064Z,94855.00
2023-06-02T05:38:58.119Z,94855.00
2023-06-02T05:39:58.246Z,94856.00
2023-06-02T05:40:58.300Z,94854.00
2023-06-02T05:41:58.293Z,94852.00
2023-06-02T05:42:58.280Z,94852.00
2023-06-02T05:43:58.272Z,94853.00
2023-06-02T05:44:58.263Z,94851.00
2023-06-02T05:45:58.379Z,94850.00
2023-06-02T05:46:58.377Z,94852.00
2023-06-02T05:47:58.564Z,94849.00
2023-06-02T05:48:58.359Z,94847.00
2023-06-02T05:49:58.435Z,94847.00
2023-06-02T05:50:58.443Z,94846.00
2023-06-02T05:51:58.516Z,94845.00
2023-06-02T05:52:58.559Z,94846.00
2023-06-02T05:53:58.635Z,94848.00
2023-06-02T05:54:58.582Z,94845.00
2023-06-02T05:55:58.669Z,94845.00
2023-06-02T05:56:58.707Z,94844.00
2023-06-02T05:57:58.725Z,94845.00
2023-06-02T05:58:58.745Z,94846.00
2023-06-02T05:59:58.771Z,94842.00
2023-06-02T06:00:58.836Z,94846.00
2023-06-02T06:01:58.914Z,94845.00
2023-06-02T06:02:59.007Z,94843.00
2023-06-02T06:03:59.053Z,94842.00
2023-06-02T06:04:58.963Z,94843.00
2023-06-02T06:05:59.105Z,94845.00
2023-06-02T06:06:59.097Z,94842.00
2023-06-02T06:07:59.128Z,94843.00
2023-06-02T06:08:59.132Z,94843.00
2023-06-02T06:09:59.155Z,94840.00
2023-06-02T06:10:59.188Z,94844.00
2023-06-02T06:11:59.189Z,94841.00
2023-06-02T06:12:59.214Z,94842.00
2023-06-02T06:13:59.241Z,94842.00
2023-06-02T06:14:59.271Z,94846.00
2023-06-02T06:15:59.372Z,94846.00
2023-06-02T06:16:59.317Z,94845.00
2023-06-02T06:17:59.414Z,94847.00
2023-06-02T06:18:59.372Z,94845.00
2023-06-02T06:19:59.415Z,94845.00
2023-06-02T06:20:59.505Z,94847.00
2023-06-02T06:21:59.521Z,94847.00
2023-06-02T06:22:59.567Z,94846.00
2023-06-02T06:23:59.615Z,94849.00
2023-06-02T06:24:59.570Z,94847.00
2023-06-02T06:25:59.733Z,94849.00
2023-06-02T06:26:59.732Z,94850.00
2023-06-02T06:27:59.705Z,94848.00
2023-06-02T06:28:59.722Z,94847.00
2023-06-02T06:29:59.801Z,94847.00
2023-06-02T06:30:59.798Z,94845.00
2023-06-02T06:31:59.813Z,94846.00
2023-06-02T06:32:59.870Z,94847.00
2023-06-02T06:33:59.917Z,94849.00
2023-06-02T06:34:59.953Z,94849.00
2023-06-02T06:35:59.950Z,94848.00
2023-06-02T06:36:59.957Z,94846.00
2023-06-02T06:38:07.609Z,94846.00
2023-06-02T06:38:59.999Z,94843.00
2023-06-02T06:39:59.971Z,94838.00
2023-06-02T06:41:00.001Z,94838.00
2023-06-02T06:42:00.001Z,94841.00
2023-06-02T06:43:05.396Z,94836.00
2023-06-02T06:44:00.938Z,94837.00
2023-06-02T06:44:59.916Z,94840.00
2023-06-02T06:45:59.947Z,94838.00
2023-06-02T06:46:59.914Z,94836.00
2023-06-02T06:48:00.098Z,94835.00
2023-06-02T06:49:00.073Z,94833.00
2023-06-02T06:50:00.047Z,94831.00
2023-06-02T06:50:59.938Z,94832.00
2023-06-02T06:51:59.862Z,94828.00
2023-06-02T06:52:59.876Z,94828.00
2023-06-02T06:53:59.859Z,94831.00
2023-06-02T06:54:59.826Z,94827.00
2023-06-02T06:55:59.841Z,94830.00
2023-06-02T06:56:59.853Z,94828.00
2023-06-02T06:57:59.841Z,94827.00
2023-06-02T06:58:59.907Z,94827.00
2023-06-02T06:59:59.844Z,94826.00
2023-06-02T07:00:59.966Z,94824.00
2023-06-02T07:01:59.936Z,94823.00
2023-06-02T07:03:00.053Z,94822.00
2023-06-02T07:03:59.996Z,94823.00
2023-06-02T07:05:00.002Z,94821.00
2023-06-02T07:06:00.180Z,94819.00
2023-06-02T07:07:00.134Z,94817.00
2023-06-02T07:08:00.171Z,94818.00
2023-06-02T07:09:00.165Z,94815.00
2023-06-02T07:10:00.180Z,94817.00
2023-06-02T07:11:00.189Z,94814.00
2023-06-02T07:12:00.283Z,94815.00
2023-06-02T07:13:00.309Z,94812.00
2023-06-02T07:14:14.638Z,94812.00
2023-06-02T07:15:01.317Z,94813.00
2023-06-02T07:16:00.341Z,94809.00
2023-06-02T07:17:00.576Z,94809.00
2023-06-02T07:18:01.224Z,94809.00
2023-06-02T07:19:07.872Z,94806.00
2023-06-02T07:20:00.293Z,94808.00
2023-06-02T07:21:00.292Z,94810.00
2023-06-02T07:22:00.349Z,94807.00
2023-06-02T07:23:00.220Z,94809.00
2023-06-02T07:24:01.802Z,94804.00
2023-06-02T07:25:00.240Z,94804.00
2023-06-02T07:26:00.376Z,94803.00
2023-06-02T07:27:00.199Z,94800.00
2023-06-02T07:28:00.263Z,94798.00
2023-06-02T07:29:00.286Z,94797.00
2023-06-02T07:30:00.187Z,94794.00
2023-06-02T07:31:09.025Z,94793.00
2023-06-02T07:32:01.364Z,94791.00
2023-06-02T07:33:00.380Z,94791.00
2023-06-02T07:34:00.176Z,94790.00
2023-06-02T07:35:00.240Z,94790.00
2023-06-02T07:36:00.226Z,94787.00
2023-06-02T07:37:00.231Z,94788.00
2023-06-02T07:38:00.167Z,94788.00
2023-06-02T07:39:00.192Z,94784.00
2023-06-02T07:40:00.192Z,94785.00
2023-06-02T07:41:00.155Z,94782.00
2023-06-02T07:42:00.158Z,94781.00
2023-06-02T07:43:00.318Z,94781.00
2023-06-02T07:44:00.135Z,94777.00
2023-06-02T07:45:00.148Z,94775.00
2023-06-02T07:46:00.230Z,94773.00
2023-06-02T07:47:00.359Z,94774.00
2023-06-02T07:48:00.348Z,94772.00
2023-06-02T07:49:00.275Z,94771.00
2023-06-02T07:50:00.455Z,94768.00
2023-06-02T07:51:00.420Z,94767.00
2023-06-02T07:52:00.398Z,94761.00
2023-06-02T07:53:00.383Z,94759.00
2023-06-02T07:54:00.383Z,94759.00
2023-06-02T07:55:00.443Z,94756.00
2023-06-02T07:56:00.583Z,94754.00
2023-06-02T07:57:00.480Z,94752.00
2023-06-02T07:58:00.523Z,94750.00
2023-06-02T07:59:00.586Z,94753.00
2023-06-02T08:00:00.618Z,94751.00
2023-06-02T08:01:00.633Z,94749.00
2023-06-02T08:02:00.702Z,94748.00
2023-06-02T08:03:00.738Z,94746.00
2023-06-02T08:04:00.878Z,94747.00
2023-06-02T08:05:00.775Z,94748.00
2023-06-02T08:06:00.815Z,94747.00
2023-06-02T08:07:00.872Z,94750.00
2023-06-02T08:08:00.873Z,94742.00
2023-06-02T08:09:00.920Z,94743.00
2023-06-02T08:10:00.922Z,94744.00
2023-06-02T08:11:00.933Z,94744.00
2023-06-02T08:12:00.929Z,94749.00
2023-06-02T08:13:00.932Z,94745.00
2023-06-02T08:14:00.985Z,94741.00
2023-06-02T08:15:01.075Z,94739.00
2023-06-02T08:16:20.563Z,94736.00
2023-06-02T08:17:02.071Z,94739.00
2023-06-02T08:18:01.107Z,94733.00
2023-06-02T08:19:01.123Z,94732.00
2023-06-02T08:20:01.097Z,94731.00
2023-06-02T08:21:01.083Z,94729.00
2023-06-02T08:22:01.053Z,94729.00
2023-06-02T08:23:01.061Z,94729.00
2023-06-02T08:24:01.062Z,94731.00
2023-06-02T08:25:01.018Z,94726.00
2023-06-02T08:26:01.211Z,94725.00
2023-06-02T08:27:00.968Z,94724.00
2023-06-02T08:28:00.996Z,94724.00
2023-06-02T08:29:01.005Z,94724.00
2023-06-02T08:30:01.006Z,94728.00
2023-06-02T08:31:01.014Z,94726.00
2023-06-02T08:32:01.163Z,94720.00
2023-06-02T08:33:01.191Z,94720.00
2023-06-02T08:34:01.079Z,94717.00
2023-06-02T08:35:01.638Z,94715.00
2023-06-02T08:36:01.257Z,94714.00
2023-06-02T08:37:01.284Z,94711.00
2023-06-02T08:38:01.357Z,94712.00
2023-06-02T08:39:01.287Z,94715.00
2023-06-02T08:40:01.314Z,94712.00
2023-06-02T08:41:01.370Z,94712.00
2023-06-02T08:42:01.381Z,94708.00
2023-06-02T08:43:01.405Z,94708.00
2023-06-02T08:44:01.465Z,94705.00
2023-06-02T08:45:01.470Z,94705.00
2023-06-02T08:46:01.682Z,94706.00
2023-06-02T08:47:01.516Z,94702.00
2023-06-02T08:48:01.534Z,94700.00
2023-06-02T08:49:01.702Z,94701.00
2023-06-02T08:50:01.614Z,94702.00
2023-06-02T08:51:01.705Z,94701.00
2023-06-02T08:52:01.713Z,94700.00
2023-06-02T08:53:01.698Z,94699.00
2023-06-02T08:54:03.397Z,94699.00
2023-06-02T08:55:01.652Z,94699.00
2023-06-02T08:56:01.860Z,94696.00
2023-06-02T08:57:01.752Z,94691.00
2023-06-02T08:58:01.744Z,94692.00
2023-06-02T08:59:01.808Z,94694.00
2023-06-02T09:00:01.861Z,94694.00
2023-06-02T09:01:01.941Z,94695.00
2023-06-02T09:02:01.990Z,94692.00
2023-06-02T09:03:01.996Z,94691.00
2023-06-02T09:04:02.025Z,94688.00
2023-06-02T09:05:02.081Z,94689.00
2023-06-02T09:06:02.078Z,94690.00
2023-06-02T09:07:02.046Z,94686.00
2023-06-02T09:08:02.080Z,94690.00
2023-06-02T09:09:02.292Z,94684.00
2023-06-02T09:10:02.264Z,94686.00
2023-06-02T09:11:02.239Z,94687.00
2023-06-02T09:12:02.246Z,94686.00
2023-06-02T09:13:02.313Z,94683.00
2023-06-02T09:14:02.378Z,94683.00
2023-06-02T09:15:02.406Z,94684.00
2023-06-02T09:16:02.583Z,94685.00
2023-06-02T09:17:02.457Z,94684.00
2023-06-02T09:18:02.529Z,94678.00
2023-06-02T09:19:02.551Z,94676.00
2023-06-02T09:20:02.582Z,94674.00
2023-06-02T09:21:02.956Z,94680.00
2023-06-02T09:22:02.617Z,94676.00
2023-06-02T09:23:02.577Z,94674.00
2023-06-02T09:24:12.779Z,94676.00
2023-06-02T09:25:03.574Z,94677.00
2023-06-02T09:26:09.532Z,94673.00
2023-06-02T09:27:03.577Z,94673.00
2023-06-02T09:28:02.557Z,94672.00
2023-06-02T09:29:02.536Z,94669.00
2023-06-02T09:30:02.517Z,94670.00
2023-06-02T09:31:02.734Z,94668.00
2023-06-02T09:32:02.606Z,94669.00
2023-06-02T09:33:02.571Z,94667.00
2023-06-02T09:34:02.561Z,94662.00
2023-06-02T09:35:02.531Z,94666.00
2023-06-02T09:36:02.849Z,94663.00
2023-06-02T09:37:02.552Z,94660.00
2023-06-02T09:38:02.548Z,94661.00
2023-06-02T09:39:02.483Z,94660.00
2023-06-02T09:40:02.463Z,94661.00
2023-06-02T09:41:02.733Z,94658.00
2023-06-02T09:42:02.577Z,94654.00
2023-06-02T09:43:02.555Z,94654.00
2023-06-02T09:44:02.599Z,94655.00
2023-06-02T09:45:02.598Z,94653.00
2023-06-02T09:46:03.117Z,94653.00
2023-06-02T09:47:02.871Z,94658.00
2023-06-02T09:48:02.787Z,94653.00
2023-06-02T09:49:02.815Z,94651.00
2023-06-02T09:50:02.813Z,94652.00
2023-06-02T09:51:02.830Z,94654.00
2023-06-02T09:52:02.873Z,94651.00
2023-06-02T09:53:02.833Z,94647.00
2023-06-02T09:54:02.884Z,94650.00
2023-06-02T09:55:04.132Z,94645.00
2023-06-02T09:56:02.958Z,94646.00
2023-06-02T09:57:03.009Z,94648.00
2023-06-02T09:58:03.069Z,94646.00
2023-06-02T09:59:03.089Z,94645.00
2023-06-02T10:00:03.036Z,94642.00
2023-06-02T10:01:03.354Z,94641.00
2023-06-02T10:02:03.240Z,94643.00
2023-06-02T10:03:03.270Z,94637.00
2023-06-02T10:04:03.139Z,94640.00
2023-06-02T10:05:03.183Z,94636.00
2023-06-02T10:06:03.578Z,94632.00
2023-06-02T10:07:03.233Z,94632.00
2023-06-02T10:08:03.300Z,94637.00
2023-06-02T10:09:03.302Z,94629.00
2023-06-02T10:10:03.370Z,94629.00
2023-06-02T10:11:03.702Z,94637.00
2023-06-02T10:12:03.425Z,94632.00
2023-06-02T10:13:03.433Z,94628.00
2023-06-02T10:14:03.438Z,94629.00
2023-06-02T10:15:03.500Z,94621.00
2023-06-02T10:16:03.593Z,94620.00
2023-06-02T10:17:03.581Z,94619.00
2023-06-02T10:18:11.208Z,94618.00
2023-06-02T10:19:03.563Z,94616.00
2023-06-02T10:20:03.636Z,94621.00
2023-06-02T10:21:03.742Z,94618.00
2023-06-02T10:22:03.661Z,94611.00
2023-06-02T10:23:03.709Z,94610.00
2023-06-02T10:24:03.736Z,94610.00
2023-06-02T10:25:03.591Z,94615.00
2023-06-02T10:26:03.581Z,94607.00
2023-06-02T10:27:03.529Z,94609.00
2023-06-02T10:28:03.538Z,94608.00
2023-06-02T10:29:03.534Z,94606.00
2023-06-02T10:30:03.554Z,94608.00
2023-06-02T10:31:03.756Z,94603.00
2023-06-02T10:32:03.518Z,94606.00
2023-06-02T10:33:03.555Z,94602.00
2023-06-02T10:34:03.547Z,94604.00
2023-06-02T10:35:03.499Z,94602.00
2023-06-02T10:36:07.233Z,94596.00
2023-06-02T10:37:03.495Z,94601.00
2023-06-02T10:38:03.555Z,94594.00
2023-06-02T10:39:03.586Z,94599.00
2023-06-02T10:40:03.555Z,94598.00
2023-06-02T10:42:30.199Z,94600.00
2023-06-02T10:43:22.592Z,94594.00
2023-06-02T10:44:22.587Z,94594.00
2023-06-02T10:45:22.556Z,94592.00
2023-06-02T10:46:22.719Z,94590.00
2023-06-02T10:47:22.588Z,94589.00
2023-06-02T10:48:22.519Z,94588.00
2023-06-02T10:49:22.554Z,94581.00
2023-06-02T10:50:22.591Z,94589.00
2023-06-02T10:51:22.565Z,94581.00
2023-06-02T10:52:22.556Z,94576.00
2023-06-02T10:53:22.546Z,94572.00
2023-06-02T10:54:22.543Z,94572.00
2023-06-02T10:55:22.522Z,94577.00
2023-06-02T10:56:22.511Z,94575.00
2023-06-02T10:57:22.498Z,94574.00
2023-06-02T10:58:22.500Z,94572.00
2023-06-02T10:59:22.467Z,94574.00
2023-06-02T11:00:22.471Z,94576.00
2023-06-02T11:01:22.492Z,94567.00
2023-06-02T11:02:22.539Z,94571.00
2023-06-02T11:03:22.633Z,94570.00
2023-06-02T11:04:22.450Z,94576.00
2023-06-02T11:05:22.432Z,94570.00
2023-06-02T11:06:22.473Z,94570.00
2023-06-02T11:07:22.459Z,94562.00
2023-06-02T11:08:22.508Z,94554.00
2023-06-02T11:09:22.479Z,94557.00
2023-06-02T11:10:22.511Z,94556.00
2023-06-02T11:11:22.534Z,94552.00
2023-06-02T11:12:22.556Z,94555.00
2023-06-02T11:13:22.591Z,94550.00
2023-06-02T11:14:22.636Z,94550.00
2023-06-02T11:15:22.748Z,94551.00
2023-06-02T11:16:24.482Z,94551.00
2023-06-02T11:17:22.721Z,94550.00
2023-06-02T11:18:22.756Z,94544.00
2023-06-02T11:19:22.699Z,94546.00
2023-06-02T11:20:22.753Z,94543.00
2023-06-02T11:21:24.777Z,94547.00
2023-06-02T11:22:22.730Z,94550.00
2023-06-02T11:23:22.746Z,94547.00
2023-06-02T11:24:22.747Z,94551.00
2023-06-02T11:25:22.743Z,94546.00
2023-06-02T11:26:22.806Z,94547.00
2023-06-02T11:27:22.724Z,94551.00
2023-06-02T11:28:22.721Z,94547.00
2023-06-02T11:29:22.743Z,94541.00
2023-06-02T11:30:22.700Z,94536.00
2023-06-02T11:31:22.803Z,94534.00
2023-06-02T11:32:22.784Z,94536.00
2023-06-02T11:33:24.557Z,94532.00
2023-06-02T11:34:22.671Z,94535.00
2023-06-02T11:35:22.687Z,94529.00
2023-06-02T11:36:22.644Z,94528.00
2023-06-02T11:37:22.640Z,94526.00
2023-06-02T11:38:22.649Z,94534.00
2023-06-02T11:39:24.183Z,94525.00
2023-06-02T11:40:22.623Z,94523.00
2023-06-02T11:41:22.708Z,94528.00
2023-06-02T11:42:22.626Z,94525.00
2023-06-02T11:43:22.633Z,94525.00
2023-06-02T11:44:22.665Z,94520.00
2023-06-02T11:45:22.681Z,94523.00
2023-06-02T11:46:22.638Z,94522.00